Time;durP1;ratioP1;P1;durP2;ratioP2;P2;SDS_P1;SDS_P2;PMS_P1;PMS_P2;Temp;Humidity;BMP_temperature;BMP_pressure;BME280_temperature;BME280_humidity;BME280_pressure;Samples;Min_cycle;Max_cycle;Signal;HPM_P1;HPM_P2
2023/10/17 00:00:28;;;;;;;8.05;3.22;;;;;;;;;;6257022;28;20337;-69
2023/10/17 00:03:31;;;;;;;6.45;3.33;;;;;;;;;;6257569;28;20226;-69
2023/10/17 00:06:33;;;;;;;13.80;3.50;;;;;;;;;;6249415;28;20412;-70
2023/10/17 00:09:37;;;;;;;12.80;3.38;;;;;;;;;;6257220;28;20061;-71
2023/10/17 00:12:43;;;;;;;;;;;;;;;;;;6246452;28;20350;-70
2023/10/17 00:15:46;;;;;;;5.40;3.42;;;;;;;;;;6252139;28;19925;-70
2023/10/17 00:18:49;;;;;;;12.45;3.20;;;;;;;;;;6253406;28;20254;-71
2023/10/17 00:21:51;;;;;;;7.45;3.30;;;;;;;;;;6246152;28;20100;-69
2023/10/17 00:24:55;;;;;;;6.00;2.53;;;;;;;;;;6250577;28;20088;-69
2023/10/17 00:27:57;;;;;;;6.57;3.40;;;;;;;;;;6252919;28;20046;-72
2023/10/17 00:30:59;;;;;;;9.55;3.72;;;;;;;;;;6250964;28;20060;-71
2023/10/17 00:34:12;;;;;;;13.13;3.35;;;;;;;;;;6253129;28;20109;-70
2023/10/17 00:37:15;;;;;;;9.13;2.90;;;;;;;;;;6231588;28;20057;-71
2023/10/17 00:40:34;;;;;;;6.57;2.70;;;;;;;;;;6237507;28;20862;-71
2023/10/17 00:43:35;;;;;;;7.18;3.28;;;;;;;;;;6233238;28;20303;-70
2023/10/17 00:46:39;;;;;;;6.80;2.53;;;;;;;;;;6232105;28;20054;-68
2023/10/17 00:49:44;;;;;;;4.70;2.60;;;;;;;;;;6229418;28;20049;-70
2023/10/17 00:52:47;;;;;;;9.40;3.00;;;;;;;;;;6227702;28;20332;-72
2023/10/17 00:55:55;;;;;;;5.78;3.20;;;;;;;;;;6223399;28;20056;-70
2023/10/17 00:58:57;;;;;;;7.30;3.40;;;;;;;;;;6226590;28;20049;-70
2023/10/17 01:02:06;;;;;;;13.80;3.03;;;;;;;;;;6230192;28;20100;-70
2023/10/17 01:05:11;;;;;;;6.13;3.10;;;;;;;;;;6230395;28;20073;-70
2023/10/17 01:08:13;;;;;;;7.32;3.17;;;;;;;;;;6229134;28;20096;-71
2023/10/17 01:11:20;;;;;;;6.22;3.05;;;;;;;;;;6223556;28;20393;-70
2023/10/17 01:14:23;;;;;;;9.30;3.63;;;;;;;;;;6227046;28;20046;-72
2023/10/17 01:17:26;;;;;;;7.85;3.22;;;;;;;;;;6224473;28;20096;-70
2023/10/17 01:20:29;;;;;;;5.60;3.00;;;;;;;;;;6225383;28;20416;-70
2023/10/17 01:23:31;;;;;;;7.45;3.05;;;;;;;;;;6228661;28;20327;-69
2023/10/17 01:26:37;;;;;;;6.80;2.75;;;;;;;;;;6222339;28;20068;-70
2023/10/17 01:29:41;;;;;;;11.25;3.53;;;;;;;;;;6219098;28;20322;-70
2023/10/17 01:32:44;;;;;;;6.22;2.70;;;;;;;;;;6217658;28;20088;-71
2023/10/17 01:35:45;;;;;;;9.98;3.22;;;;;;;;;;6222058;28;20050;-71
2023/10/17 01:38:49;;;;;;;4.80;2.97;;;;;;;;;;6226628;28;20050;-70
2023/10/17 01:41:53;;;;;;;8.43;2.78;;;;;;;;;;6228707;28;20054;-73
2023/10/17 01:44:54;;;;;;;;;;;;;;;;;;6226273;28;20058;-71
2023/10/17 01:47:58;;;;;;;7.05;2.92;;;;;;;;;;6225410;28;19925;-71
2023/10/17 01:51:06;;;;;;;6.35;2.38;;;;;;;;;;6220399;28;20049;-71
2023/10/17 01:54:14;;;;;;;6.22;2.88;;;;;;;;;;6227877;28;20056;-70
2023/10/17 01:57:17;;;;;;;8.82;3.05;;;;;;;;;;6242224;28;20318;-70
2023/10/17 02:00:36;;;;;;;8.80;2.83;;;;;;;;;;6244257;28;20053;-69
2023/10/17 02:03:39;;;;;;;6.43;2.40;;;;;;;;;;6225501;28;20457;-69
2023/10/17 02:06:42;;;;;;;4.95;2.90;;;;;;;;;;6224821;28;20055;-70
2023/10/17 02:09:48;;;;;;;5.72;2.50;;;;;;;;;;6223378;28;20058;-69
2023/10/17 02:12:52;;;;;;;5.03;2.78;;;;;;;;;;6227275;28;20154;-69
2023/10/17 02:15:53;;;;;;;10.27;2.78;;;;;;;;;;6228490;28;20108;-70
2023/10/17 02:18:55;;;;;;;7.32;2.40;;;;;;;;;;6223628;28;20318;-69
2023/10/17 02:22:00;;;;;;;7.78;3.20;;;;;;;;;;6227188;28;20064;-69
2023/10/17 02:25:05;;;;;;;4.93;2.65;;;;;;;;;;6224431;28;20041;-70
2023/10/17 02:28:08;;;;;;;6.60;2.67;;;;;;;;;;6247242;28;20132;-70
2023/10/17 02:31:10;;;;;;;7.87;3.33;;;;;;;;;;6246578;28;20072;-70
2023/10/17 02:34:11;;;;;;;7.50;2.60;;;;;;;;;;6225268;28;20054;-69
2023/10/17 02:37:17;;;;;;;5.55;2.50;;;;;;;;;;6234756;28;20045;-69
2023/10/17 02:40:21;;;;;;;5.35;2.67;;;;;;;;;;6229179;28;20061;-69
2023/10/17 02:43:24;;;;;;;6.20;2.70;;;;;;;;;;6225033;28;20058;-69
2023/10/17 02:46:27;;;;;;;6.40;2.77;;;;;;;;;;6229323;28;20061;-70
2023/10/17 02:49:36;;;;;;;4.88;2.72;;;;;;;;;;6247722;28;20041;-70
2023/10/17 02:52:38;;;;;;;7.63;2.75;;;;;;;;;;6250250;28;20049;-70
2023/10/17 02:55:40;;;;;;;8.57;3.30;;;;;;;;;;6252074;28;20055;-70
2023/10/17 02:58:46;;;;;;;6.68;2.80;;;;;;;;;;6250134;28;20076;-70
2023/10/17 03:01:53;;;;;;;10.25;3.03;;;;;;;;;;6240561;28;20050;-68
2023/10/17 03:05:02;;;;;;;4.72;2.38;;;;;;;;;;6225220;28;20110;-71
2023/10/17 03:08:10;;;;;;;6.68;2.70;;;;;;;;;;6229490;28;20092;-70
2023/10/17 03:11:16;;;;;;;5.05;2.67;;;;;;;;;;6222810;28;20061;-70
2023/10/17 03:14:23;;;;;;;7.65;2.85;;;;;;;;;;6227950;28;20957;-72
2023/10/17 03:17:24;;;;;;;6.60;2.95;;;;;;;;;;6228217;28;20075;-70
2023/10/17 03:20:36;;;;;;;8.48;2.90;;;;;;;;;;6227919;28;20125;-70
2023/10/17 03:23:39;;;;;;;5.78;2.70;;;;;;;;;;6225717;28;20053;-70
2023/10/17 03:26:41;;;;;;;5.70;2.78;;;;;;;;;;6228107;28;20054;-70
2023/10/17 03:29:46;;;;;;;6.28;2.92;;;;;;;;;;6221122;28;20046;-70
2023/10/17 03:33:03;;;;;;;4.65;2.42;;;;;;;;;;6226852;28;20077;-70
2023/10/17 03:36:05;;;;;;;6.45;3.05;;;;;;;;;;6228451;28;20056;-70
2023/10/17 03:39:20;;;;;;;7.57;2.80;;;;;;;;;;6227185;28;20345;-69
2023/10/17 03:42:31;;;;;;;6.13;2.97;;;;;;;;;;6222671;28;20054;-69
2023/10/17 03:45:43;;;;;;;7.47;3.35;;;;;;;;;;6240918;28;20116;-70
2023/10/17 03:48:52;;;;;;;7.28;2.53;;;;;;;;;;6244060;28;20357;-70
2023/10/17 03:51:54;;;;;;;6.13;2.67;;;;;;;;;;6225723;28;20109;-71
2023/10/17 03:54:56;;;;;;;5.43;2.95;;;;;;;;;;6221836;28;20057;-69
2023/10/17 03:57:59;;;;;;;17.05;2.85;;;;;;;;;;6250130;28;20046;-69
2023/10/17 04:01:06;;;;;;;9.77;2.83;;;;;;;;;;6231426;28;20065;-70
2023/10/17 04:04:08;;;;;;;8.98;2.70;;;;;;;;;;6252362;28;20049;-70
2023/10/17 04:07:11;;;;;;;9.00;2.92;;;;;;;;;;6226018;28;20050;-70
2023/10/17 04:10:19;;;;;;;6.00;2.95;;;;;;;;;;6233146;28;20216;-70
2023/10/17 04:13:23;;;;;;;5.80;2.60;;;;;;;;;;6237379;28;20049;-70
2023/10/17 04:16:33;;;;;;;7.30;2.85;;;;;;;;;;6252646;28;20073;-70
2023/10/17 04:19:39;;;;;;;11.88;2.70;;;;;;;;;;6229452;28;20064;-70
2023/10/17 04:22:43;;;;;;;8.82;2.55;;;;;;;;;;6227380;28;20057;-70
2023/10/17 04:25:44;;;;;;;;;;;;;;;;;;6226237;28;20077;-70
2023/10/17 04:28:49;;;;;;;8.93;2.67;;;;;;;;;;6227702;28;19932;-69
2023/10/17 04:31:56;;;;;;;6.70;3.17;;;;;;;;;;6234597;28;20153;-70
2023/10/17 04:35:01;;;;;;;6.38;2.80;;;;;;;;;;6229081;28;20056;-69
2023/10/17 04:38:16;;;;;;;6.10;2.60;;;;;;;;;;6229446;28;20047;-70
2023/10/17 04:41:35;;;;;;;7.05;2.55;;;;;;;;;;6230011;28;20113;-71
2023/10/17 04:44:50;;;;;;;7.57;2.72;;;;;;;;;;6226050;28;20058;-70
2023/10/17 04:48:10;;;;;;;5.57;2.25;;;;;;;;;;6244204;28;20229;-69
2023/10/17 04:51:25;;;;;;;8.07;2.83;;;;;;;;;;6229169;28;20053;-70
2023/10/17 04:54:39;;;;;;;8.20;2.60;;;;;;;;;;6228624;28;20372;-73
2023/10/17 04:57:57;;;;;;;5.18;2.58;;;;;;;;;;6228525;28;20056;-70
2023/10/17 05:01:17;;;;;;;7.80;2.92;;;;;;;;;;6225121;28;20108;-71
2023/10/17 05:04:33;;;;;;;8.13;3.17;;;;;;;;;;6236927;28;20562;-70
2023/10/17 05:07:34;;;;;;;7.82;3.03;;;;;;;;;;6228017;28;20071;-70
2023/10/17 06:17:22;;;;;;;16.95;3.88;;;;;;;;;;6225451;28;20061;-70
2023/10/17 06:20:44;;;;;;;14.15;3.55;;;;;;;;;;6214622;28;20060;-70
2023/10/17 06:27:43;;;;;;;12.82;3.30;;;;;;;;;;6223475;28;20049;-70
2023/10/17 06:30:45;;;;;;;9.45;3.40;;;;;;;;;;6219585;28;20053;-70
2023/10/17 06:33:47;;;;;;;19.10;4.97;;;;;;;;;;6229587;28;20345;-71
2023/10/17 06:36:51;;;;;;;9.77;3.75;;;;;;;;;;6249552;28;20053;-69
2023/10/17 06:39:58;;;;;;;15.27;4.70;;;;;;;;;;6247904;28;20236;-69
2023/10/17 06:43:06;;;;;;;12.95;3.78;;;;;;;;;;6249351;28;20088;-69
2023/10/17 06:46:12;;;;;;;9.43;3.60;;;;;;;;;;6236626;28;20038;-69
2023/10/17 06:49:29;;;;;;;16.70;3.90;;;;;;;;;;6244612;28;20060;-70
2023/10/17 06:52:40;;;;;;;13.90;3.63;;;;;;;;;;6238458;28;20115;-70
2023/10/17 06:55:44;;;;;;;11.27;3.47;;;;;;;;;;6242845;28;20057;-69
2023/10/17 06:58:48;;;;;;;13.45;3.58;;;;;;;;;;6242898;28;20937;-70
2023/10/17 07:02:10;;;;;;;8.98;3.55;;;;;;;;;;6237848;28;20325;-70
2023/10/17 07:05:14;;;;;;;8.10;3.30;;;;;;;;;;6251057;28;20052;-70
2023/10/17 07:08:19;;;;;;;10.75;3.67;;;;;;;;;;6250156;28;20140;-71
2023/10/17 07:11:29;;;;;;;15.52;4.28;;;;;;;;;;6248269;28;20242;-71
2023/10/17 07:14:32;;;;;;;8.93;3.30;;;;;;;;;;6250621;28;20121;-70
2023/10/17 07:17:43;;;;;;;11.93;3.70;;;;;;;;;;6242132;28;20069;-72
2023/10/17 07:24:06;;;;;;;15.98;3.53;;;;;;;;;;6251239;28;20333;-70
2023/10/17 07:27:17;;;;;;;9.63;3.45;;;;;;;;;;6252195;28;20069;-70
2023/10/17 07:30:35;;;;;;;62.03;32.20;;;;;;;;;;6249358;28;20313;-69
2023/10/17 07:33:36;;;;;;;33.05;15.93;;;;;;;;;;6248548;28;20088;-70
2023/10/17 07:36:39;;;;;;;11.45;5.10;;;;;;;;;;6252027;28;20096;-72
2023/10/17 07:39:42;;;;;;;12.60;3.63;;;;;;;;;;6255553;28;20064;-70
2023/10/17 07:42:45;;;;;;;8.23;3.38;;;;;;;;;;6257255;28;20072;-71
2023/10/17 07:45:55;;;;;;;7.00;3.25;;;;;;;;;;6255341;28;20057;-72
2023/10/17 07:49:03;;;;;;;8.43;3.20;;;;;;;;;;6253254;28;20053;-71
2023/10/17 07:52:10;;;;;;;12.38;4.15;;;;;;;;;;6252562;28;20522;-71
2023/10/17 07:55:19;;;;;;;6.70;3.05;;;;;;;;;;6245900;28;20050;-71
2023/10/17 08:01:42;;;;;;;5.78;3.00;;;;;;;;;;6254872;28;20044;-70
2023/10/17 08:04:44;;;;;;;9.32;4.03;;;;;;;;;;6260401;28;20118;-71
2023/10/17 08:07:49;;;;;;;7.38;3.40;;;;;;;;;;6257198;28;20053;-69
2023/10/17 08:10:51;;;;;;;8.68;3.95;;;;;;;;;;6254470;28;20375;-71
2023/10/17 08:13:53;;;;;;;5.90;3.63;;;;;;;;;;6248622;28;20053;-71
2023/10/17 08:16:57;;;;;;;9.40;3.30;;;;;;;;;;6251946;28;20210;-71
2023/10/17 08:20:08;;;;;;;11.30;3.65;;;;;;;;;;6253272;28;20096;-70
2023/10/17 08:23:11;;;;;;;10.82;3.90;;;;;;;;;;6254769;28;20232;-70
2023/10/17 08:26:17;;;;;;;9.55;3.72;;;;;;;;;;6250064;28;20257;-72
2023/10/17 08:29:20;;;;;;;10.23;4.25;;;;;;;;;;6255218;28;20054;-71
2023/10/17 08:32:54;;;;;;;10.20;4.10;;;;;;;;;;6253820;28;20045;-70
2023/10/17 08:36:01;;;;;;;7.10;3.33;;;;;;;;;;6250881;28;21112;-72
2023/10/17 08:39:03;;;;;;;6.03;3.60;;;;;;;;;;6253137;28;20046;-71
2023/10/17 08:42:11;;;;;;;6.90;3.53;;;;;;;;;;6254238;28;20062;-71
2023/10/17 08:45:15;;;;;;;6.95;3.75;;;;;;;;;;6249559;28;20338;-73
2023/10/17 08:48:19;;;;;;;7.60;3.58;;;;;;;;;;6252055;28;20077;-73
2023/10/17 08:51:23;;;;;;;12.38;4.20;;;;;;;;;;6247732;28;20100;-71
2023/10/17 08:54:25;;;;;;;5.68;3.60;;;;;;;;;;6246180;28;20289;-72
2023/10/17 08:57:26;;;;;;;7.97;3.80;;;;;;;;;;6251744;28;20117;-71
2023/10/17 09:03:46;;;;;;;9.65;3.78;;;;;;;;;;6252364;28;20068;-70
2023/10/17 09:06:49;;;;;;;9.43;3.92;;;;;;;;;;6251209;28;20238;-71
2023/10/17 09:09:55;;;;;;;10.98;3.80;;;;;;;;;;6251421;28;20049;-70
2023/10/17 09:16:13;;;;;;;10.07;3.80;;;;;;;;;;6254859;28;20225;-71
2023/10/17 09:19:20;;;;;;;7.47;3.53;;;;;;;;;;6252657;28;20072;-71
2023/10/17 09:22:38;;;;;;;6.78;3.63;;;;;;;;;;6255038;28;20322;-72
2023/10/17 09:25:39;;;;;;;6.93;4.05;;;;;;;;;;6253679;28;20114;-71
2023/10/17 09:28:41;;;;;;;4.63;2.95;;;;;;;;;;6246531;28;20064;-74
2023/10/17 09:31:44;;;;;;;35.45;18.45;;;;;;;;;;6248379;28;20215;-71
2023/10/17 09:34:49;;;;;;;29.17;15.20;;;;;;;;;;6251286;28;20099;-73
2023/10/17 09:37:51;;;;;;;12.52;7.57;;;;;;;;;;6258023;28;20048;-71
2023/10/17 09:40:54;;;;;;;20.58;12.55;;;;;;;;;;6251027;28;20107;-72
2023/10/17 09:43:56;;;;;;;21.85;11.15;;;;;;;;;;6255894;28;20250;-72
2023/10/17 09:47:02;;;;;;;10.73;5.97;;;;;;;;;;6250662;28;20341;-71
2023/10/17 09:50:08;;;;;;;36.75;20.88;;;;;;;;;;6247708;28;20229;-72
2023/10/17 09:53:16;;;;;;;14.07;8.00;;;;;;;;;;6252034;28;20048;-72
2023/10/17 09:56:22;;;;;;;8.88;4.93;;;;;;;;;;6250003;28;20107;-72
2023/10/17 09:59:26;;;;;;;10.73;4.60;;;;;;;;;;6252816;28;20091;-72
2023/10/17 10:02:28;;;;;;;10.10;3.90;;;;;;;;;;6254233;28;20045;-71
2023/10/17 10:05:32;;;;;;;9.30;3.90;;;;;;;;;;6255957;28;20060;-71
2023/10/17 10:08:34;;;;;;;8.20;3.72;;;;;;;;;;6249000;28;20215;-71
2023/10/17 10:11:58;;;;;;;9.48;4.28;;;;;;;;;;6249623;28;20053;-71
2023/10/17 10:14:59;;;;;;;6.90;3.75;;;;;;;;;;6249407;28;20052;-71
2023/10/17 10:18:01;;;;;;;10.57;4.57;;;;;;;;;;6249987;28;20053;-70
2023/10/17 10:21:04;;;;;;;6.88;3.70;;;;;;;;;;6247681;28;20396;-71
2023/10/17 10:24:17;;;;;;;7.93;4.05;;;;;;;;;;6254691;28;20049;-71
2023/10/17 10:27:24;;;;;;;7.78;3.90;;;;;;;;;;6249381;28;20085;-71
2023/10/17 10:30:34;;;;;;;6.38;3.20;;;;;;;;;;6248281;28;20051;-73
2023/10/17 10:33:36;;;;;;;8.07;3.92;;;;;;;;;;6252743;28;20341;-71
2023/10/17 10:36:42;;;;;;;6.35;4.05;;;;;;;;;;6250651;28;20041;-70
2023/10/17 10:40:08;;;;;;;7.32;3.67;;;;;;;;;;6254326;28;20049;-70
2023/10/17 10:43:11;;;;;;;5.57;3.28;;;;;;;;;;6245237;28;20049;-72
2023/10/17 10:46:14;;;;;;;6.30;3.40;;;;;;;;;;6233195;28;20062;-73
2023/10/17 10:49:16;;;;;;;;;;;;;;;;;;6223962;28;20183;-71
2023/10/17 10:52:25;;;;;;;5.70;3.47;;;;;;;;;;6226559;28;19921;-73
2023/10/17 10:55:27;;;;;;;5.95;3.40;;;;;;;;;;6224032;28;20046;-71
2023/10/17 10:58:30;;;;;;;11.27;4.13;;;;;;;;;;6225344;28;20057;-72
2023/10/17 11:01:33;;;;;;;6.43;3.78;;;;;;;;;;6225471;28;20637;-71
2023/10/17 11:04:35;;;;;;;6.10;3.63;;;;;;;;;;6227488;28;20045;-71
2023/10/17 11:07:38;;;;;;;9.93;3.75;;;;;;;;;;6219464;28;20062;-71
2023/10/17 11:10:40;;;;;;;;;;;;;;;;;;6229242;28;20053;-71
2023/10/17 11:13:45;;;;;;;6.93;3.88;;;;;;;;;;6229588;28;19931;-70
2023/10/17 11:16:50;;;;;;;6.82;3.75;;;;;;;;;;6226467;28;20628;-71
2023/10/17 11:19:55;;;;;;;6.32;3.97;;;;;;;;;;6228539;28;20064;-70
2023/10/17 11:22:58;;;;;;;5.38;3.75;;;;;;;;;;6224342;28;20077;-70
2023/10/17 11:26:00;;;;;;;7.97;4.07;;;;;;;;;;6226365;28;20068;-71
2023/10/17 11:29:03;;;;;;;8.38;4.07;;;;;;;;;;6227534;28;20052;-71
2023/10/17 11:32:05;;;;;;;10.07;4.72;;;;;;;;;;6228183;28;20307;-70
2023/10/17 11:35:19;;;;;;;7.57;4.32;;;;;;;;;;6234052;28;20042;-70
2023/10/17 11:38:33;;;;;;;6.68;3.92;;;;;;;;;;6237103;28;20128;-69
2023/10/17 11:41:46;;;;;;;10.80;3.78;;;;;;;;;;6232141;28;20100;-69
2023/10/17 11:44:48;;;;;;;7.75;3.97;;;;;;;;;;6234977;28;20104;-69
2023/10/17 11:47:50;;;;;;;113.95;74.45;;;;;;;;;;6227107;28;20346;-71
2023/10/17 11:51:04;;;;;;;16.27;9.40;;;;;;;;;;6234160;28;20049;-71
2023/10/17 11:54:08;;;;;;;7.72;4.32;;;;;;;;;;6234006;28;20070;-71
2023/10/17 11:57:11;;;;;;;7.00;4.13;;;;;;;;;;6226982;28;20113;-70
2023/10/17 12:00:22;;;;;;;5.45;3.75;;;;;;;;;;6227299;28;20322;-71
2023/10/17 12:03:26;;;;;;;6.85;3.65;;;;;;;;;;6232910;28;20109;-70
2023/10/17 12:06:28;;;;;;;13.13;4.40;;;;;;;;;;6225531;28;20045;-70
2023/10/17 12:09:31;;;;;;;7.45;4.20;;;;;;;;;;6232478;28;20073;-71
2023/10/17 12:12:34;;;;;;;;;;;;;;;;;;6243795;28;20274;-70
2023/10/17 12:15:36;;;;;;;10.70;4.13;;;;;;;;;;6226197;28;19952;-71
2023/10/17 12:18:38;;;;;;;6.60;4.32;;;;;;;;;;6231063;28;20301;-71
2023/10/17 12:21:40;;;;;;;6.30;4.07;;;;;;;;;;6223956;28;20145;-71
2023/10/17 12:24:45;;;;;;;13.18;4.90;;;;;;;;;;6229818;28;20111;-70
2023/10/17 12:27:49;;;;;;;6.38;3.72;;;;;;;;;;6228166;28;20057;-71
2023/10/17 12:30:52;;;;;;;12.38;4.45;;;;;;;;;;6230503;28;20049;-71
2023/10/17 12:33:53;;;;;;;9.43;3.60;;;;;;;;;;6234145;28;20053;-70
2023/10/17 12:36:55;;;;;;;7.38;3.45;;;;;;;;;;6233615;28;20474;-70
2023/10/17 12:39:58;;;;;;;7.03;3.88;;;;;;;;;;6228308;28;20117;-70
2023/10/17 12:43:01;;;;;;;;;;;;;;;;;;6223433;28;20041;-70
2023/10/17 12:46:03;;;;;;;6.70;3.70;;;;;;;;;;6224233;28;19929;-70
2023/10/17 12:49:04;;;;;;;11.63;4.15;;;;;;;;;;6229219;28;20059;-70
2023/10/17 12:52:06;;;;;;;8.13;4.28;;;;;;;;;;6251996;28;20059;-71
2023/10/17 12:55:11;;;;;;;8.48;3.95;;;;;;;;;;6256489;28;20116;-70
2023/10/17 12:58:18;;;;;;;6.60;4.00;;;;;;;;;;6253990;28;20053;-71
2023/10/17 13:01:24;;;;;;;7.75;3.75;;;;;;;;;;6225510;28;20233;-70
2023/10/17 13:04:27;;;;;;;22.00;13.02;;;;;;;;;;6227345;28;20058;-71
2023/10/17 13:07:28;;;;;;;69.05;37.00;;;;;;;;;;6228933;28;20054;-72
2023/10/17 13:10:31;;;;;;;39.53;20.77;;;;;;;;;;6229064;28;20057;-73
2023/10/17 13:13:33;;;;;;;;;;;;;;;;;;6234413;28;20065;-71
2023/10/17 13:16:35;;;;;;;35.83;21.42;;;;;;;;;;6230866;28;19945;-74
2023/10/17 13:19:40;;;;;;;10.15;5.72;;;;;;;;;;6227421;28;20084;-71
2023/10/17 13:22:46;;;;;;;17.33;10.90;;;;;;;;;;6225046;28;20066;-71
2023/10/17 13:25:50;;;;;;;9.00;5.13;;;;;;;;;;6224659;28;20058;-71
2023/10/17 13:28:54;;;;;;;5.78;4.18;;;;;;;;;;6229599;28;20422;-71
2023/10/17 13:31:57;;;;;;;5.63;3.92;;;;;;;;;;6228312;28;20068;-71
2023/10/17 13:34:59;;;;;;;7.68;4.22;;;;;;;;;;6230740;28;20045;-71
2023/10/17 13:38:01;;;;;;;5.80;3.88;;;;;;;;;;6228367;28;20038;-71
2023/10/17 13:41:06;;;;;;;6.53;3.70;;;;;;;;;;6222117;28;20065;-70
2023/10/17 13:44:11;;;;;;;5.50;3.80;;;;;;;;;;6225704;28;20116;-71
2023/10/17 13:47:13;;;;;;;6.28;4.15;;;;;;;;;;6228264;28;20049;-70
2023/10/17 13:50:15;;;;;;;8.47;3.13;;;;;;;;;;6226617;28;20081;-71
2023/10/17 13:53:17;;;;;;;7.80;3.75;;;;;;;;;;6225194;28;20048;-70
2023/10/17 13:56:20;;;;;;;8.63;3.65;;;;;;;;;;6233061;28;20053;-71
2023/10/17 13:59:38;;;;;;;;;;;;;;;;;;6222468;28;20041;-70
2023/10/17 14:02:40;;;;;;;7.35;4.05;;;;;;;;;;6224403;28;19941;-70
2023/10/17 14:05:43;;;;;;;7.65;3.60;;;;;;;;;;6228736;28;20046;-70
2023/10/17 14:08:45;;;;;;;6.30;3.63;;;;;;;;;;6221803;28;20061;-70
2023/10/17 14:11:49;;;;;;;8.77;4.00;;;;;;;;;;6225371;28;20352;-70
2023/10/17 14:14:51;;;;;;;5.38;4.00;;;;;;;;;;6229446;28;20440;-70
2023/10/17 14:17:53;;;;;;;7.57;3.30;;;;;;;;;;6233493;28;20052;-70
2023/10/17 14:21:04;;;;;;;4.80;3.83;;;;;;;;;;6245933;28;20241;-71
2023/10/17 14:24:10;;;;;;;5.50;3.67;;;;;;;;;;6240406;28;20096;-71
2023/10/17 14:27:13;;;;;;;6.30;3.33;;;;;;;;;;6233192;28;20041;-70
2023/10/17 14:30:16;;;;;;;9.02;3.95;;;;;;;;;;6248717;28;20064;-71
2023/10/17 14:33:17;;;;;;;7.50;4.15;;;;;;;;;;6250086;28;20116;-71
2023/10/17 14:36:21;;;;;;;6.20;3.40;;;;;;;;;;6257993;28;20041;-71
2023/10/17 14:39:22;;;;;;;;;;;;;;;;;;6251994;28;20057;-70
2023/10/17 14:42:27;;;;;;;5.97;3.85;;;;;;;;;;6251022;28;19927;-70
2023/10/17 14:45:30;;;;;;;5.72;3.83;;;;;;;;;;6251478;28;20139;-70
2023/10/17 14:48:31;;;;;;;7.32;3.60;;;;;;;;;;6251125;28;20057;-71
2023/10/17 14:51:33;;;;;;;7.00;4.60;;;;;;;;;;6251710;28;20080;-69
2023/10/17 14:54:35;;;;;;;7.13;3.70;;;;;;;;;;6251734;28;20061;-71
2023/10/17 14:57:38;;;;;;;6.47;3.40;;;;;;;;;;6244863;28;20057;-70
2023/10/17 15:00:40;;;;;;;5.78;3.10;;;;;;;;;;6245083;28;20065;-71
2023/10/17 15:03:42;;;;;;;7.93;4.07;;;;;;;;;;6250077;28;20055;-73
2023/10/17 15:06:43;;;;;;;8.77;3.40;;;;;;;;;;6253164;28;20076;-70
2023/10/17 15:09:47;;;;;;;5.85;3.45;;;;;;;;;;6242957;28;20053;-71
2023/10/17 15:12:52;;;;;;;6.38;3.63;;;;;;;;;;6251740;28;20062;-70
2023/10/17 15:15:54;;;;;;;9.25;4.20;;;;;;;;;;6245635;28;20182;-71
2023/10/17 15:18:55;;;;;;;8.13;3.88;;;;;;;;;;6245556;28;20337;-70
2023/10/17 15:21:57;;;;;;;8.13;3.47;;;;;;;;;;6248714;28;20323;-71
2023/10/17 15:24:59;;;;;;;82.75;45.13;;;;;;;;;;6250509;28;20564;-69
2023/10/17 15:28:02;;;;;;;63.63;37.10;;;;;;;;;;6247210;28;20072;-70
2023/10/17 15:31:05;;;;;;;57.50;31.02;;;;;;;;;;6251792;28;20120;-71
2023/10/17 15:34:06;;;;;;;38.80;20.42;;;;;;;;;;6234690;28;20045;-68
2023/10/17 15:37:08;;;;;;;20.75;11.27;;;;;;;;;;6241075;28;20056;-69
2023/10/17 15:40:16;;;;;;;8.43;4.68;;;;;;;;;;6221084;28;20212;-69
2023/10/17 15:43:19;;;;;;;5.32;3.92;;;;;;;;;;6221139;28;20061;-69
2023/10/17 15:46:23;;;;;;;9.25;3.90;;;;;;;;;;6223861;28;20057;-70
2023/10/17 15:49:25;;;;;;;9.80;3.92;;;;;;;;;;6228413;28;20061;-71
2023/10/17 15:52:27;;;;;;;6.72;3.90;;;;;;;;;;6239774;28;20062;-70
2023/10/17 15:55:29;;;;;;;9.48;4.10;;;;;;;;;;6242336;28;20281;-69
2023/10/17 15:58:32;;;;;;;8.55;4.22;;;;;;;;;;6240513;28;20954;-70
2023/10/17 16:01:35;;;;;;;8.55;4.43;;;;;;;;;;6228364;28;20274;-73
2023/10/17 16:04:37;;;;;;;10.23;4.55;;;;;;;;;;6231105;28;20053;-73
2023/10/17 16:07:40;;;;;;;5.38;3.78;;;;;;;;;;6224513;28;20076;-72
2023/10/17 16:10:42;;;;;;;8.45;4.20;;;;;;;;;;6238767;28;20112;-71
2023/10/17 16:13:45;;;;;;;8.48;4.28;;;;;;;;;;6250194;28;20045;-71
2023/10/17 16:16:47;;;;;;;7.15;4.13;;;;;;;;;;6243267;28;20329;-73
2023/10/17 16:19:51;;;;;;;18.52;4.30;;;;;;;;;;6236698;28;20390;-71
2023/10/17 16:22:52;;;;;;;;;;;;;;;;;;6245100;28;20107;-71
2023/10/17 16:25:58;;;;;;;14.32;3.88;;;;;;;;;;6237905;28;20079;-71
2023/10/17 16:29:02;;;;;;;7.60;4.25;;;;;;;;;;6241439;28;20365;-71
2023/10/17 16:32:04;;;;;;;15.23;4.20;;;;;;;;;;6231462;28;20062;-71
2023/10/17 16:35:07;;;;;;;6.55;4.10;;;;;;;;;;6229438;28;20056;-70
2023/10/17 16:38:10;;;;;;;7.95;4.88;;;;;;;;;;6227785;28;20152;-70
2023/10/17 16:41:12;;;;;;;8.45;2.97;;;;;;;;;;6228487;28;20088;-71
2023/10/17 16:44:16;;;;;;;13.35;4.82;;;;;;;;;;6226604;28;20057;-72
2023/10/17 16:47:19;;;;;;;7.72;4.72;;;;;;;;;;6227035;28;20049;-73
2023/10/17 16:50:22;;;;;;;;;;;;;;;;;;6228450;28;20050;-71
2023/10/17 16:53:25;;;;;;;6.65;4.00;;;;;;;;;;6222105;28;19924;-70
2023/10/17 16:56:27;;;;;;;7.55;3.80;;;;;;;;;;6225127;28;20050;-72
2023/10/17 16:59:30;;;;;;;7.72;4.40;;;;;;;;;;6230822;28;20065;-71
2023/10/17 17:02:32;;;;;;;16.63;4.63;;;;;;;;;;6224356;28;20058;-70
2023/10/17 17:05:37;;;;;;;9.82;4.22;;;;;;;;;;6224821;28;20103;-70
2023/10/17 17:08:40;;;;;;;9.23;3.97;;;;;;;;;;6227483;28;20054;-70
2023/10/17 17:11:42;;;;;;;10.25;4.65;;;;;;;;;;6220636;28;20058;-71
2023/10/17 17:14:46;;;;;;;7.95;3.97;;;;;;;;;;6218027;28;20343;-71
2023/10/17 17:17:48;;;;;;;7.93;4.15;;;;;;;;;;6222742;28;20120;-69
2023/10/17 17:20:50;;;;;;;10.50;4.30;;;;;;;;;;6229145;28;20049;-74
2023/10/17 17:23:52;;;;;;;7.72;3.92;;;;;;;;;;6227556;28;20042;-70
2023/10/17 17:26:56;;;;;;;13.02;4.60;;;;;;;;;;6217111;28;20085;-71
2023/10/17 17:29:59;;;;;;;12.63;3.85;;;;;;;;;;6226993;28;20089;-71
2023/10/17 17:33:01;;;;;;;9.45;4.47;;;;;;;;;;6224090;28;20045;-69
2023/10/17 17:36:05;;;;;;;8.23;4.30;;;;;;;;;;6227410;28;20148;-69
2023/10/17 17:39:08;;;;;;;9.32;4.28;;;;;;;;;;6228001;28;20111;-70
2023/10/17 17:42:10;;;;;;;10.10;4.37;;;;;;;;;;6222008;28;20058;-69
2023/10/17 17:45:13;;;;;;;9.80;4.18;;;;;;;;;;6225048;28;20330;-71
2023/10/17 17:48:17;;;;;;;;;;;;;;;;;;6229677;28;20050;-70
2023/10/17 17:51:19;;;;;;;9.82;4.43;;;;;;;;;;6220804;28;19964;-73
2023/10/17 17:54:21;;;;;;;12.30;5.13;;;;;;;;;;6225002;28;20056;-70
2023/10/17 17:57:23;;;;;;;7.07;4.35;;;;;;;;;;6224062;28;20049;-70
2023/10/17 18:00:27;;;;;;;9.07;4.13;;;;;;;;;;6228850;28;20045;-72
2023/10/17 18:03:29;;;;;;;9.93;4.70;;;;;;;;;;6224242;28;20120;-72
2023/10/17 18:06:33;;;;;;;10.65;4.55;;;;;;;;;;6227068;28;20323;-70
2023/10/17 18:09:39;;;;;;;7.45;4.40;;;;;;;;;;6220871;28;20058;-69
2023/10/17 18:12:41;;;;;;;10.57;5.43;;;;;;;;;;6227939;28;20057;-69
2023/10/17 18:15:44;;;;;;;6.85;4.57;;;;;;;;;;6224928;28;20062;-71
2023/10/17 18:18:45;;;;;;;9.48;5.10;;;;;;;;;;6230696;28;20326;-71
2023/10/17 18:21:48;;;;;;;10.80;5.97;;;;;;;;;;6225405;28;20066;-70
2023/10/17 18:24:52;;;;;;;11.02;5.63;;;;;;;;;;6226204;28;20085;-70
2023/10/17 18:27:54;;;;;;;14.13;5.97;;;;;;;;;;6224561;28;20121;-69
2023/10/17 18:31:07;;;;;;;15.45;5.32;;;;;;;;;;6224338;28;20046;-71
2023/10/17 18:34:10;;;;;;;12.55;5.40;;;;;;;;;;6250925;28;20064;-71
2023/10/17 18:37:11;;;;;;;9.63;5.45;;;;;;;;;;6228013;28;20053;-70
2023/10/17 18:40:14;;;;;;;7.93;5.35;;;;;;;;;;6221985;28;20112;-69
2023/10/17 18:43:19;;;;;;;9.60;5.25;;;;;;;;;;6225574;28;20054;-70
2023/10/17 18:46:22;;;;;;;10.45;5.30;;;;;;;;;;6222807;28;20054;-69
2023/10/17 18:49:24;;;;;;;14.43;5.00;;;;;;;;;;6221557;28;20063;-69
2023/10/17 18:52:26;;;;;;;13.30;5.72;;;;;;;;;;6217777;28;20117;-70
2023/10/17 18:55:28;;;;;;;12.65;5.50;;;;;;;;;;6225070;28;20057;-73
2023/10/17 18:58:34;;;;;;;9.35;5.28;;;;;;;;;;6217416;28;20046;-73
2023/10/17 19:01:38;;;;;;;9.60;5.57;;;;;;;;;;6226998;28;20315;-72
2023/10/17 19:04:41;;;;;;;13.55;6.57;;;;;;;;;;6225277;28;20048;-71
2023/10/17 19:07:43;;;;;;;9.95;5.47;;;;;;;;;;6223118;28;20054;-72
2023/10/17 19:10:44;;;;;;;13.07;5.70;;;;;;;;;;6225310;28;20104;-71
2023/10/17 19:13:46;;;;;;;12.95;6.20;;;;;;;;;;6224300;28;20053;-69
2023/10/17 19:16:50;;;;;;;12.45;5.82;;;;;;;;;;6218207;28;20070;-73
2023/10/17 19:19:52;;;;;;;12.35;5.93;;;;;;;;;;6225899;28;20245;-72
2023/10/17 19:22:54;;;;;;;10.90;6.13;;;;;;;;;;6218507;28;20054;-70
2023/10/17 19:25:56;;;;;;;13.43;6.32;;;;;;;;;;6226458;28;20369;-73
2023/10/17 19:28:58;;;;;;;8.90;5.28;;;;;;;;;;6245980;28;20212;-72
2023/10/17 19:32:06;;;;;;;13.23;6.20;;;;;;;;;;6224231;28;20058;-71
2023/10/17 19:35:10;;;;;;;9.00;6.00;;;;;;;;;;6246790;28;20119;-73
2023/10/17 19:38:13;;;;;;;13.20;6.72;;;;;;;;;;6239884;28;20326;-71
2023/10/17 19:41:15;;;;;;;13.77;5.82;;;;;;;;;;6245708;28;20077;-71
2023/10/17 19:44:17;;;;;;;10.43;5.55;;;;;;;;;;6252728;28;20353;-72
2023/10/17 19:47:21;;;;;;;13.95;6.82;;;;;;;;;;6248528;28;20057;-69
2023/10/17 19:50:23;;;;;;;16.17;7.00;;;;;;;;;;6247633;28;20076;-71